Time;durP1;ratioP1;P1;durP2;ratioP2;P2;SDS_P1;SDS_P2;PMS_P1;PMS_P2;Temp;Humidity;BMP_temperature;BMP_pressure;BME280_temperature;BME280_humidity;BME280_pressure;Samples;Min_cycle;Max_cycle;Signal;HPM_P1;HPM_P2
2022/05/22 00:05:17;;;;;;;1.83;0.40;;;;;;;21.38;41.12;101850.78;16128398;19;130726;-51
2022/05/22 00:10:39;;;;;;;1.35;0.47;;;;;;;21.37;41.32;101840.75;16127833;19;130363;-50
2022/05/22 00:21:42;;;;;;;2.22;0.60;;;;;;;21.33;41.32;101839.53;16128839;19;130875;-49
2022/05/22 00:27:05;;;;;;;1.83;0.68;;;;;;;21.31;41.15;101842.56;16131881;19;129966;-50
2022/05/22 00:32:27;;;;;;;2.30;0.40;;;;;;;21.30;41.37;101832.53;16128454;19;129808;-50
2022/05/22 00:37:49;;;;;;;1.40;0.40;;;;;;;21.29;41.56;101824.44;16130978;19;131796;-51
2022/05/22 00:43:51;;;;;;;1.02;0.40;;;;;;;21.26;41.32;101822.13;16125894;19;129017;-52
2022/05/22 00:49:24;;;;;;;1.88;0.43;;;;;;;21.26;41.15;101816.56;16124733;19;130650;-51
2022/05/22 00:54:56;;;;;;;0.95;0.30;;;;;;;21.23;41.41;101815.09;16129151;19;129641;-48
2022/05/22 01:00:21;;;;;;;1.00;0.30;;;;;;;21.24;41.19;101821.50;16127464;19;130508;-51
2022/05/22 01:05:43;;;;;;;2.23;0.50;;;;;;;21.21;41.31;101820.91;16124669;19;129730;-46
2022/05/22 01:11:23;;;;;;;2.50;0.50;;;;;;;21.22;41.51;101821.75;16123997;19;130308;-46
2022/05/22 01:16:45;;;;;;;1.08;0.32;;;;;;;21.19;41.13;101800.81;16139105;19;130028;-44
2022/05/22 01:22:12;;;;;;;0.55;0.40;;;;;;;21.20;41.03;101794.16;16137906;19;130410;-43
2022/05/22 01:27:35;;;;;;;1.88;0.40;;;;;;;21.19;41.46;101783.28;16136288;19;130460;-42
2022/05/22 01:32:57;;;;;;;1.65;0.30;;;;;;;21.18;41.34;101773.25;16136796;19;129730;-45
2022/05/22 01:38:19;;;;;;;3.33;0.40;;;;;;;21.17;41.34;101775.16;16140829;19;129730;-43
2022/05/22 01:43:41;;;;;;;3.25;0.40;;;;;;;21.15;41.30;101779.28;16135523;19;130652;-44
2022/05/22 01:49:02;;;;;;;1.17;0.30;;;;;;;21.15;41.58;101777.38;16141428;19;129975;-43
2022/05/22 01:54:24;;;;;;;1.38;0.40;;;;;;;21.15;41.09;101771.78;16140472;19;130521;-46
2022/05/22 01:59:46;;;;;;;1.98;0.38;;;;;;;21.14;41.28;101763.69;16138704;19;130316;-45
2022/05/22 02:05:08;;;;;;;1.33;0.40;;;;;;;21.12;41.14;101763.94;16135840;19;130352;-42
2022/05/22 02:10:31;;;;;;;0.88;0.38;;;;;;;21.12;41.33;101749.16;16138702;19;130830;-48
2022/05/22 02:15:53;;;;;;;0.68;0.30;;;;;;;21.11;41.48;101747.50;16138230;19;130395;-43
2022/05/22 02:21:15;;;;;;;1.35;0.40;;;;;;;21.10;41.43;101746.63;16136860;19;129254;-42
2022/05/22 02:26:37;;;;;;;1.35;0.30;;;;;;;21.08;41.54;101743.22;16129769;19;129561;-44
2022/05/22 02:31:58;;;;;;;1.08;0.30;;;;;;;21.08;41.05;101747.97;16137765;19;129225;-45
2022/05/22 02:37:20;;;;;;;2.35;0.50;;;;;;;21.08;41.47;101742.41;16136518;19;131161;-43
2022/05/22 02:42:46;;;;;;;0.90;0.40;;;;;;;21.06;41.23;101735.16;16138829;19;130404;-46
2022/05/22 02:48:10;;;;;;;1.10;0.38;;;;;;;21.06;41.16;101720.38;16136563;19;129801;-42
2022/05/22 02:53:32;;;;;;;0.98;0.30;;;;;;;21.04;41.12;101725.34;16135584;19;129907;-45
2022/05/22 02:58:54;;;;;;;0.38;0.20;;;;;;;21.04;41.40;101714.22;16135689;19;129691;-44
2022/05/22 03:04:16;;;;;;;1.80;0.50;;;;;;;21.03;41.52;101712.53;16129803;19;129762;-42
2022/05/22 03:09:41;;;;;;;1.45;0.45;;;;;;;21.02;41.29;101699.72;16134130;19;130061;-48
2022/05/22 03:15:05;;;;;;;1.25;0.50;;;;;;;21.01;41.31;101695.22;16134313;19;130940;-47
2022/05/22 03:20:28;;;;;;;0.75;0.35;;;;;;;21.00;41.19;101696.31;16132677;19;129227;-48
2022/05/22 03:25:49;;;;;;;1.33;0.50;;;;;;;20.99;41.02;101695.47;16128399;19;130004;-44
2022/05/22 03:31:12;;;;;;;1.65;0.43;;;;;;;20.99;41.22;101677.94;16131629;19;129018;-45
2022/05/22 03:36:36;;;;;;;0.50;0.22;;;;;;;20.98;41.45;101681.81;16133527;19;130306;-48
2022/05/22 03:41:58;;;;;;;1.10;0.30;;;;;;;20.96;41.04;101678.41;16130736;19;130208;-44
2022/05/22 03:47:20;;;;;;;1.20;0.52;;;;;;;20.96;41.08;101681.19;16132621;19;129950;-41
2022/05/22 03:52:44;;;;;;;1.25;0.57;;;;;;;20.96;41.32;101675.63;16131698;19;129965;-46
2022/05/22 03:58:06;;;;;;;0.90;0.38;;;;;;;20.95;41.45;101676.72;16130272;19;130527;-41
2022/05/22 04:03:28;;;;;;;1.02;0.40;;;;;;;20.94;41.22;101672.25;16128878;19;129173;-44
2022/05/22 04:08:50;;;;;;;1.10;0.43;;;;;;;20.92;41.35;101672.50;16130199;19;130889;-45
2022/05/22 04:14:11;;;;;;;0.90;0.32;;;;;;;20.93;41.08;101681.69;16130243;19;130467;-43
2022/05/22 04:19:33;;;;;;;0.63;0.38;;;;;;;20.90;41.04;101678.31;16125925;19;131177;-43
2022/05/22 04:25:15;;;;;;;0.35;0.30;;;;;;;20.90;41.22;101681.09;16130440;19;129553;-44
2022/05/22 04:30:37;;;;;;;1.85;0.45;;;;;;;20.88;41.39;101676.84;16128671;19;129809;-46
2022/05/22 04:36:00;;;;;;;1.02;0.52;;;;;;;20.88;41.40;101672.16;16130459;19;130054;-42
2022/05/22 04:41:21;;;;;;;0.93;0.43;;;;;;;20.87;41.32;101670.47;16126574;19;129822;-43
2022/05/22 04:46:43;;;;;;;1.35;0.50;;;;;;;20.86;41.01;101677.09;16126297;19;130621;-50
2022/05/22 04:52:05;;;;;;;7.28;0.57;;;;;;;20.90;41.09;101680.25;16144221;19;130600;-47
2022/05/22 04:57:27;;;;;;;1.95;0.40;;;;;;;20.92;41.06;101675.28;16139155;19;130916;-49
2022/05/22 05:02:49;;;;;;;3.45;0.70;;;;;;;20.92;40.94;101677.25;16136360;19;129917;-49
2022/05/22 05:08:11;;;;;;;3.03;0.50;;;;;;;20.94;41.23;101672.25;16141507;19;130578;-55
2022/05/22 05:13:32;;;;;;;12.48;1.38;;;;;;;20.99;41.01;101666.81;16138880;19;130701;-51
2022/05/22 05:18:54;;;;;;;8.32;1.20;;;;;;;21.03;41.37;101668.03;16136247;19;130827;-43
2022/05/22 05:24:16;;;;;;;7.75;1.30;;;;;;;21.06;41.05;101679.50;16136007;19;129974;-46
2022/05/22 05:29:38;;;;;;;14.20;1.42;;;;;;;21.11;41.03;101684.34;16138923;19;131199;-49
2022/05/22 05:35:04;;;;;;;3.65;0.98;;;;;;;21.17;40.66;101679.72;16142995;19;129322;-53
2022/05/22 05:40:26;;;;;;;9.35;1.40;;;;;;;21.19;41.04;101675.59;16140519;19;129580;-47
2022/05/22 05:45:48;;;;;;;4.35;1.30;;;;;;;21.26;40.97;101677.41;16138691;19;130951;-47
2022/05/22 05:51:12;;;;;;;6.15;1.85;;;;;;;21.30;40.67;101673.88;16137065;19;130237;-48
2022/05/22 05:56:39;;;;;;;4.13;1.45;;;;;;;21.35;40.20;101675.91;16135308;19;129990;-46
2022/05/22 06:02:01;;;;;;;4.85;1.10;;;;;;;21.38;40.17;101683.78;16135066;19;129780;-51
2022/05/22 06:07:23;;;;;;;6.10;1.50;;;;;;;21.45;40.70;101686.44;16137754;19;130799;-44
2022/05/22 06:12:46;;;;;;;4.53;1.17;;;;;;;21.47;40.22;101685.06;16129172;19;130372;-45
2022/05/22 06:18:08;;;;;;;4.07;1.35;;;;;;;21.52;40.01;101681.56;16130732;19;129875;-44
2022/05/22 06:23:29;;;;;;;6.32;1.25;;;;;;;21.56;39.98;101681.91;16135747;19;129778;-47
2022/05/22 06:28:52;;;;;;;5.95;1.30;;;;;;;21.60;39.78;101685.91;16138001;19;130618;-47
2022/05/22 06:34:13;;;;;;;7.70;1.25;;;;;;;21.61;40.12;101679.25;16134659;19;131430;-48
2022/05/22 06:39:52;;;;;;;4.05;1.40;;;;;;;21.60;39.76;101683.97;16132742;19;130699;-50
2022/05/22 06:45:22;;;;;;;7.60;1.63;;;;;;;21.61;39.54;101688.44;16134590;19;129372;-51
2022/05/22 06:50:44;;;;;;;5.40;1.40;;;;;;;21.65;39.70;101674.88;16131621;19;130495;-48
2022/05/22 06:56:06;;;;;;;4.55;1.20;;;;;;;21.69;39.66;101675.22;16133988;19;130030;-49
2022/05/22 07:01:27;;;;;;;2.92;0.82;;;;;;;21.71;39.69;101678.63;16134812;19;129836;-50
2022/05/22 07:06:49;;;;;;;4.32;1.30;;;;;;;21.72;39.56;101675.56;16128853;19;130751;-49
2022/05/22 07:12:12;;;;;;;5.22;1.20;;;;;;;21.74;39.42;101673.38;16129766;19;130556;-50
2022/05/22 07:17:34;;;;;;;4.18;1.10;;;;;;;21.77;39.49;101681.25;16131051;19;130145;-44
2022/05/22 07:22:56;;;;;;;5.50;1.60;;;;;;;21.80;39.53;101675.16;16131377;19;130690;-47
2022/05/22 07:28:18;;;;;;;3.70;1.20;;;;;;;21.81;39.77;101660.13;16134006;19;130621;-49
2022/05/22 07:33:39;;;;;;;2.67;0.80;;;;;;;21.82;39.56;101647.91;16135291;19;129544;-51
2022/05/22 07:39:02;;;;;;;3.45;0.82;;;;;;;21.85;39.73;101634.56;16131775;19;129201;-48
2022/05/22 07:44:23;;;;;;;6.85;1.25;;;;;;;21.86;39.60;101628.75;16129067;19;130582;-46
2022/05/22 07:55:25;;;;;;;2.30;0.90;;;;;;;21.90;39.53;101615.19;16138028;19;130203;-46
2022/05/22 08:00:49;;;;;;;4.05;1.30;;;;;;;21.89;39.56;101611.53;16139189;19;129488;-51
2022/05/22 08:06:11;;;;;;;5.60;1.35;;;;;;;21.93;39.38;101609.06;16139723;19;131399;-48
2022/05/22 08:11:33;;;;;;;3.20;0.85;;;;;;;21.95;39.35;101601.31;16139542;19;129823;-48
2022/05/22 08:16:55;;;;;;;4.65;1.02;;;;;;;21.96;39.13;101595.50;16135885;19;129155;-47
2022/05/22 08:22:17;;;;;;;5.05;0.95;;;;;;;21.97;39.17;101586.03;16138398;19;129828;-45
2022/05/22 08:27:40;;;;;;;3.83;1.02;;;;;;;21.98;39.29;101584.94;16151278;19;130031;-50
2022/05/22 08:33:02;;;;;;;5.40;1.00;;;;;;;22.00;39.16;101565.19;16146109;19;131340;-47
2022/05/22 08:38:24;;;;;;;7.50;1.38;;;;;;;22.01;39.46;101564.09;16143104;19;130420;-51
2022/05/22 08:44:02;;;;;;;6.13;1.30;;;;;;;22.05;39.18;101561.66;16147815;19;131091;-44
2022/05/22 08:49:38;;;;;;;4.90;1.02;;;;;;;22.05;39.24;101556.91;16152709;19;129914;-48
2022/05/22 08:55:11;;;;;;;4.30;1.00;;;;;;;22.08;39.41;101566.72;16152364;19;129366;-50
2022/05/22 09:00:37;;;;;;;4.18;1.05;;;;;;;22.07;39.48;101560.28;16135240;19;131530;-47
2022/05/22 09:06:04;;;;;;;6.63;1.17;;;;;;;22.06;39.34;101544.66;16145931;19;129552;-51
2022/05/22 09:11:41;;;;;;;3.65;1.20;;;;;;;22.06;39.40;101553.03;16151289;19;129044;-50
2022/05/22 09:17:14;;;;;;;5.00;1.30;;;;;;;22.05;38.88;101550.50;16144192;19;129225;-48
2022/05/22 09:22:44;;;;;;;7.10;1.98;;;;;;;22.03;38.87;101550.72;16140547;19;129274;-46
2022/05/22 09:28:15;;;;;;;8.18;2.30;;;;;;;21.97;38.38;101549.81;16140486;19;130429;-46
2022/05/22 09:34:25;;;;;;;6.55;1.75;;;;;;;21.93;38.75;101547.78;16137473;19;131774;-52
2022/05/22 09:40:28;;;;;;;9.80;2.55;;;;;;;21.89;38.05;101541.06;16141397;19;132705;-52
2022/05/22 09:46:48;;;;;;;12.05;2.28;;;;;;;21.86;37.84;101530.41;16137416;19;130282;-48
2022/05/22 09:52:20;;;;;;;8.30;1.73;;;;;;;21.88;38.10;101522.66;16133411;19;129540;-47
2022/05/22 09:58:26;;;;;;;5.45;1.80;;;;;;;21.88;37.55;101509.56;16123957;19;129767;-50
2022/05/22 10:04:09;;;;;;;7.07;1.60;;;;;;;21.88;38.02;101514.31;16126870;19;129159;-47
2022/05/22 10:09:49;;;;;;;8.13;1.50;;;;;;;21.91;37.76;101505.44;16127963;19;130553;-50
2022/05/22 10:15:39;;;;;;;7.07;1.75;;;;;;;21.89;37.94;101507.63;15977566;19;2906696;-50
2022/05/22 10:21:25;;;;;;;9.77;1.92;;;;;;;21.90;38.38;101484.25;16136693;19;129353;-47
2022/05/22 10:27:16;;;;;;;10.23;2.55;;;;;;;21.89;38.07;101479.78;16139289;19;129183;-47
2022/05/22 10:32:45;;;;;;;11.63;2.30;;;;;;;21.89;38.08;101479.78;16143385;19;129880;-48
2022/05/22 10:38:14;;;;;;;10.52;2.30;;;;;;;21.90;38.61;101464.75;16144368;19;129061;-48
2022/05/22 10:43:41;;;;;;;7.97;1.83;;;;;;;21.94;38.81;101454.75;16143612;19;132182;-47
2022/05/22 10:49:03;;;;;;;11.55;2.40;;;;;;;21.93;38.41;101453.06;16133578;19;129181;-49
2022/05/22 10:54:30;;;;;;;12.13;2.30;;;;;;;21.92;38.56;101434.69;16140129;19;129693;-52
2022/05/22 10:59:52;;;;;;;10.10;2.40;;;;;;;21.91;38.21;101435.81;16141555;19;128989;-49
2022/05/22 11:05:27;;;;;;;16.65;2.80;;;;;;;21.91;38.48;101417.13;16137146;19;129958;-50
2022/05/22 11:10:49;;;;;;;11.05;2.60;;;;;;;21.91;38.43;101410.72;16135675;19;128985;-47
2022/05/22 11:16:20;;;;;;;8.05;2.33;;;;;;;21.92;38.34;101412.38;16135039;19;131569;-47
2022/05/22 11:21:56;;;;;;;6.43;2.00;;;;;;;21.89;38.08;101408.19;16141170;19;129408;-45
2022/05/22 11:27:38;;;;;;;10.63;2.17;;;;;;;21.91;38.50;101392.06;16138158;19;129236;-46
2022/05/22 11:33:30;;;;;;;18.73;2.50;;;;;;;21.91;38.31;101382.88;16133698;19;129972;-48
2022/05/22 11:39:22;;;;;;;14.75;2.15;;;;;;;21.93;38.18;101363.94;16139348;19;129849;-45
2022/05/22 11:45:07;;;;;;;16.23;2.05;;;;;;;21.95;38.44;101356.16;16135420;19;130341;-52
2022/05/22 11:50:50;;;;;;;9.67;1.57;;;;;;;21.96;38.66;101341.13;16139101;19;129571;-46
2022/05/22 11:56:14;;;;;;;13.10;1.70;;;;;;;21.98;39.07;101338.94;16139616;19;129105;-47
2022/05/22 12:02:01;;;;;;;7.43;1.30;;;;;;;22.00;38.91;101331.19;16137188;19;129308;-48
2022/05/22 12:07:47;;;;;;;14.02;1.52;;;;;;;22.01;38.57;101335.66;16138761;19;130076;-47
2022/05/22 12:13:22;;;;;;;26.15;1.70;;;;;;;22.02;38.89;101314.19;16131897;19;129490;-48
2022/05/22 12:19:02;;;;;;;8.18;1.40;;;;;;;22.02;38.44;101306.69;16128721;19;129855;-45
2022/05/22 12:24:26;;;;;;;9.93;1.40;;;;;;;22.01;38.47;101305.00;16127805;19;129334;-47
2022/05/22 12:30:06;;;;;;;7.95;1.20;;;;;;;22.02;38.50;101306.69;16136428;19;129660;-47
2022/05/22 12:35:29;;;;;;;11.00;1.48;;;;;;;21.99;38.46;101290.47;16128272;19;130597;-47
2022/05/22 12:41:10;;;;;;;30.55;2.65;;;;;;;21.99;38.54;101284.91;16129254;19;129508;-47
2022/05/22 12:46:33;;;;;;;7.75;1.50;;;;;;;21.97;38.42;101270.41;16132180;19;129600;-47
2022/05/22 12:51:58;;;;;;;21.15;2.15;;;;;;;22.00;38.70;101260.66;16133452;19;129719;-48
2022/05/22 12:57:21;;;;;;;13.05;1.95;;;;;;;21.97;38.11;101246.16;16136074;19;129567;-50
2022/05/22 13:02:46;;;;;;;10.40;1.45;;;;;;;22.00;38.00;101253.16;16135340;19;129858;-49
2022/05/22 13:08:30;;;;;;;9.13;1.67;;;;;;;22.01;38.26;101242.84;16133452;19;129206;-48
2022/05/22 13:13:53;;;;;;;8.38;1.17;;;;;;;22.01;38.51;101254.84;16149805;19;131213;-46
2022/05/22 13:19:22;;;;;;;11.65;1.40;;;;;;;22.01;38.56;101248.44;16145749;19;129479;-46
2022/05/22 13:24:51;;;;;;;6.68;1.58;;;;;;;22.02;38.70;101239.81;16145484;19;128986;-48
2022/05/22 13:30:29;;;;;;;11.07;1.38;;;;;;;22.03;38.54;101238.69;16144040;19;129585;-51
2022/05/22 13:35:58;;;;;;;5.55;1.38;;;;;;;22.03;38.75;101229.50;16150249;19;129516;-49
2022/05/22 13:41:35;;;;;;;8.32;1.50;;;;;;;22.03;38.42;101224.75;16149511;19;129581;-46
2022/05/22 13:46:59;;;;;;;13.95;1.40;;;;;;;22.03;38.98;101221.97;16141422;19;129238;-45
2022/05/22 13:52:56;;;;;;;10.52;1.90;;;;;;;22.04;38.97;101226.44;16147751;19;129986;-49
2022/05/22 13:58:18;;;;;;;;;;;;;;;21.98;39.07;101217.19;16140174;19;129483;-52
2022/05/22 14:03:47;;;;;;;11.95;1.23;;;;;;;22.00;39.09;101204.94;16133973;19;131204;-47
2022/05/22 14:09:19;;;;;;;13.02;1.45;;;;;;;21.99;38.77;101198.56;16138613;19;129728;-51
2022/05/22 14:14:41;;;;;;;10.73;1.15;;;;;;;21.96;39.12;101182.34;16131554;19;130280;-46
2022/05/22 14:20:17;;;;;;;5.57;1.35;;;;;;;21.98;38.72;101171.81;16128190;19;133278;-49
2022/05/22 14:25:40;;;;;;;6.57;1.23;;;;;;;21.95;39.06;101170.38;16133057;19;129693;-50
2022/05/22 14:31:02;;;;;;;7.90;1.00;;;;;;;21.95;38.86;101166.75;16132633;19;129198;-49
2022/05/22 14:36:24;;;;;;;3.97;1.10;;;;;;;21.93;38.94;101164.25;16142774;19;129293;-47
2022/05/22 14:41:48;;;;;;;7.32;1.42;;;;;;;21.90;39.21;101161.13;16137647;19;129772;-46
2022/05/22 14:47:19;;;;;;;6.00;1.05;;;;;;;21.92;38.95;101150.56;16133612;19;131265;-47
2022/05/22 14:52:46;;;;;;;6.88;1.17;;;;;;;22.01;38.76;101137.84;16139380;19;131898;-47
2022/05/22 14:58:18;;;;;;;12.57;3.28;;;;;;;22.05;38.27;101136.19;16143744;19;129001;-48
2022/05/22 15:03:46;;;;;;;11.75;3.25;;;;;;;22.04;38.21;101119.75;16139316;19;130119;-51
2022/05/22 15:09:09;;;;;;;6.93;2.35;;;;;;;22.02;38.44;101100.53;16140993;19;129504;-46
2022/05/22 15:14:33;;;;;;;7.85;3.90;;;;;;;22.01;38.17;101096.06;16141924;19;129247;-46
2022/05/22 15:20:02;;;;;;;16.73;4.97;;;;;;;22.01;38.22;101084.06;16134407;19;128902;-47
2022/05/22 15:25:29;;;;;;;12.38;4.82;;;;;;;22.02;38.72;101088.53;16138859;19;129320;-49
2022/05/22 15:30:59;;;;;;;9.43;4.60;;;;;;;22.00;38.41;101074.88;16139735;19;129224;-50
2022/05/22 15:36:21;;;;;;;12.05;5.78;;;;;;;21.99;38.06;101070.41;16132504;19;129297;-49
2022/05/22 15:41:45;;;;;;;7.72;4.38;;;;;;;22.00;37.76;101058.16;16139023;19;129029;-48
2022/05/22 15:47:21;;;;;;;9.98;4.47;;;;;;;22.01;37.87;101057.06;16133713;19;129537;-48
2022/05/22 15:52:46;;;;;;;6.22;3.92;;;;;;;22.00;37.90;101054.53;16140136;19;131468;-47
2022/05/22 15:58:08;;;;;;;6.88;3.03;;;;;;;22.00;37.61;101047.03;16137593;19;128914;-55
2022/05/22 16:03:30;;;;;;;5.95;3.00;;;;;;;22.00;37.92;101044.25;16131751;19;129606;-48
2022/05/22 16:08:52;;;;;;;6.32;3.28;;;;;;;22.02;37.87;101038.38;16128204;19;132674;-46
2022/05/22 16:14:14;;;;;;;7.35;3.00;;;;;;;22.03;38.05;101035.31;16131216;19;130201;-48
2022/05/22 16:19:42;;;;;;;9.00;2.80;;;;;;;22.06;37.98;101028.41;16129093;19;129272;-52
2022/05/22 16:25:05;;;;;;;11.38;3.55;;;;;;;22.10;37.69;101015.59;16130979;19;128901;-47
2022/05/22 16:30:27;;;;;;;9.77;3.17;;;;;;;22.15;37.17;101012.03;16133068;19;130429;-48
2022/05/22 16:35:49;;;;;;;13.68;3.58;;;;;;;22.18;36.74;101009.53;16128534;19;129279;-50
2022/05/22 16:41:13;;;;;;;13.40;2.70;;;;;;;22.20;36.64;101007.31;16128505;19;129645;-53
2022/05/22 16:46:58;;;;;;;10.88;2.88;;;;;;;22.21;36.54;100994.25;16141007;19;129680;-45
2022/05/22 16:58:07;;;;;;;5.65;2.08;;;;;;;22.23;35.74;100994.81;16151419;19;129213;-49
2022/05/22 17:03:41;;;;;;;8.52;2.55;;;;;;;22.23;35.83;100992.03;16146728;19;129839;-51
2022/05/22 17:09:11;;;;;;;7.20;1.92;;;;;;;22.23;35.53;100990.06;16149158;19;129332;-47
2022/05/22 17:14:40;;;;;;;8.00;2.20;;;;;;;22.25;35.84;100987.88;16145614;19;130444;-48
2022/05/22 17:20:02;;;;;;;6.68;2.08;;;;;;;22.27;35.71;100994.00;16142208;19;129042;-47
2022/05/22 17:25:26;;;;;;;7.07;1.75;;;;;;;22.26;35.86;100988.72;16141509;19;130549;-44
2022/05/22 17:30:47;;;;;;;7.13;2.03;;;;;;;22.29;35.62;100982.59;16141232;19;129149;-50
2022/05/22 17:36:17;;;;;;;4.95;1.58;;;;;;;22.30;35.85;100977.88;16144774;19;129773;-47
2022/05/22 17:41:40;;;;;;;6.50;1.35;;;;;;;22.29;36.08;100965.88;16147931;19;129115;-44
2022/05/22 17:47:01;;;;;;;4.07;1.38;;;;;;;22.28;36.10;100953.03;16143546;19;129770;-47
2022/05/22 17:52:26;;;;;;;5.20;1.30;;;;;;;22.26;36.06;100950.53;16147083;19;129443;-48
2022/05/22 17:57:48;;;;;;;4.50;1.40;;;;;;;22.26;36.45;100941.34;16146924;19;129454;-45
2022/05/22 18:03:13;;;;;;;3.40;1.10;;;;;;;22.24;35.98;100936.03;16138068;19;130291;-49
2022/05/22 18:08:37;;;;;;;6.03;1.45;;;;;;;22.20;35.95;100942.38;16140124;19;129818;-47
2022/05/22 18:19:40;;;;;;;5.78;1.55;;;;;;;22.15;36.44;100934.84;16141224;19;128980;-51
2022/05/22 18:30:47;;;;;;;6.03;1.50;;;;;;;22.10;36.80;100930.06;16139689;19;129419;-49
2022/05/22 18:36:11;;;;;;;9.68;1.48;;;;;;;22.11;36.72;100919.75;16139244;19;129596;-47
2022/05/22 18:41:35;;;;;;;5.75;1.30;;;;;;;22.11;36.80;100917.81;16146408;19;128937;-50
2022/05/22 18:46:57;;;;;;;10.70;1.70;;;;;;;22.11;36.85;100919.75;16140316;19;128845;-51
2022/05/22 18:52:21;;;;;;;6.55;1.55;;;;;;;22.09;37.08;100917.25;16145837;19;131889;-44
2022/05/22 18:57:48;;;;;;;4.70;1.30;;;;;;;22.08;37.36;100915.56;16143153;19;129729;-52
2022/05/22 19:03:10;;;;;;;5.43;1.50;;;;;;;22.08;37.40;100910.00;16142989;19;129843;-47
2022/05/22 19:08:32;;;;;;;2.42;0.93;;;;;;;22.08;37.69;100903.59;16131072;19;130648;-47
2022/05/22 19:13:58;;;;;;;5.30;1.30;;;;;;;22.10;38.21;100901.38;16143047;19;128962;-50
2022/05/22 19:19:21;;;;;;;10.30;1.58;;;;;;;22.12;38.21;100905.56;16139648;19;129479;-47
2022/05/22 19:24:43;;;;;;;16.88;1.88;;;;;;;22.16;38.75;100905.88;16139238;19;130454;-47
2022/05/22 19:30:11;;;;;;;10.88;1.10;;;;;;;22.21;39.29;100902.28;16141136;19;130411;-48
2022/05/22 19:35:41;;;;;;;6.95;1.10;;;;;;;22.22;39.37;100898.41;16137442;19;129417;-44
2022/05/22 19:46:45;;;;;;;9.30;1.20;;;;;;;22.22;39.09;100887.25;16137313;19;130986;-50
2022/05/22 19:52:06;;;;;;;8.38;1.13;;;;;;;22.21;39.20;100880.00;16139546;19;129940;-50
2022/05/22 20:03:11;;;;;;;3.15;1.15;;;;;;;22.19;39.38;100887.75;16135264;19;129027;-47
2022/05/22 20:08:37;;;;;;;6.60;0.82;;;;;;;22.18;39.32;100891.66;16128424;19;129292;-47
2022/05/22 20:13:59;;;;;;;;;;;;;;;22.13;39.67;100879.41;16134415;19;130281;-49
2022/05/22 20:19:20;;;;;;;3.75;1.15;;;;;;;22.16;39.77;100882.72;16137191;19;130355;-50
2022/05/22 20:24:42;;;;;;;16.77;1.60;;;;;;;22.13;39.51;100873.81;16151097;19;129313;-48
2022/05/22 20:30:10;;;;;;;8.60;1.40;;;;;;;22.12;39.71;100872.16;16150856;19;129322;-48
2022/05/22 20:35:32;;;;;;;9.70;1.30;;;;;;;22.08;40.02;100865.44;16149122;19;129016;-49
2022/05/22 20:40:57;;;;;;;7.20;1.20;;;;;;;22.06;40.02;100856.50;16149105;19;130613;-52
2022/05/22 20:46:23;;;;;;;4.43;1.25;;;;;;;22.04;39.78;100846.75;16149341;19;130045;-47
2022/05/22 20:51:46;;;;;;;4.88;1.40;;;;;;;22.01;40.16;100836.13;16150522;19;129971;-49
2022/05/22 20:57:11;;;;;;;5.72;1.40;;;;;;;21.98;39.93;100826.38;16147059;19;130204;-48
2022/05/22 21:02:33;;;;;;;5.03;1.20;;;;;;;21.96;39.73;100811.88;16150398;19;129296;-45
2022/05/22 21:07:55;;;;;;;4.28;1.13;;;;;;;21.94;39.69;100798.25;16145416;19;129008;-49
2022/05/22 21:13:17;;;;;;;3.10;0.90;;;;;;;21.94;39.63;100808.53;16150927;19;129286;-46
2022/05/22 21:18:39;;;;;;;2.55;1.08;;;;;;;21.92;39.56;100811.59;16146731;19;130207;-50
2022/05/22 21:29:46;;;;;;;2.95;1.17;;;;;;;21.89;40.04;100812.13;16143930;19;129405;-47
2022/05/22 21:35:08;;;;;;;2.60;0.90;;;;;;;21.89;39.94;100809.34;16145372;19;129775;-48
2022/05/22 21:40:30;;;;;;;1.98;0.80;;;;;;;21.87;39.71;100819.91;16150498;19;129396;-47
2022/05/22 21:45:52;;;;;;;1.88;0.70;;;;;;;21.87;39.92;100807.97;16143621;19;129508;-48
2022/05/22 21:51:14;;;;;;;4.78;1.27;;;;;;;21.85;39.68;100804.59;16149737;19;129107;-46
2022/05/22 21:56:36;;;;;;;1.40;0.80;;;;;;;21.86;39.64;100790.41;16149576;19;129356;-48
2022/05/22 22:01:58;;;;;;;3.83;0.90;;;;;;;21.85;39.96;100779.53;16146037;19;129234;-46
2022/05/22 22:07:21;;;;;;;3.40;0.85;;;;;;;21.82;40.18;100781.75;16140395;19;129475;-44
2022/05/22 22:12:43;;;;;;;3.85;0.90;;;;;;;21.81;40.12;100774.50;16144136;19;129348;-45
2022/05/22 22:18:05;;;;;;;1.48;0.70;;;;;;;21.80;39.98;100770.03;16141173;19;128866;-45
2022/05/22 22:23:29;;;;;;;2.40;0.88;;;;;;;21.78;40.03;100763.94;16138750;19;129002;-48
2022/05/22 22:28:51;;;;;;;2.20;0.80;;;;;;;21.77;40.10;100753.91;16129361;19;130634;-47
2022/05/22 22:34:14;;;;;;;1.00;0.40;;;;;;;21.76;40.25;100740.22;16136426;19;130553;-47
2022/05/22 22:39:36;;;;;;;1.45;0.70;;;;;;;21.74;40.08;100743.28;16129835;19;129854;-48
2022/05/22 22:44:58;;;;;;;1.58;0.70;;;;;;;21.74;40.08;100743.28;16130904;19;131035;-43
2022/05/22 22:50:20;;;;;;;1.25;0.50;;;;;;;21.74;40.07;100734.94;16136058;19;129904;-51
2022/05/22 23:01:26;;;;;;;3.92;0.60;;;;;;;21.70;40.37;100703.19;16135014;19;130288;-44
2022/05/22 23:06:47;;;;;;;1.45;0.70;;;;;;;21.70;39.86;100697.63;16133584;19;129725;-45
2022/05/22 23:12:11;;;;;;;1.70;0.70;;;;;;;21.70;39.86;100692.03;16135487;19;130204;-49
2022/05/22 23:17:32;;;;;;;3.70;0.55;;;;;;;21.69;40.23;100679.22;16130325;19;129117;-46
2022/05/22 23:22:54;;;;;;;1.42;0.80;;;;;;;21.68;39.86;100671.97;16133224;19;130558;-46
2022/05/22 23:28:16;;;;;;;2.53;0.80;;;;;;;21.67;40.16;100664.75;16128302;19;130000;-48
2022/05/22 23:33:39;;;;;;;1.40;0.60;;;;;;;21.66;40.33;100644.44;16129766;19;129590;-46
2022/05/22 23:39:17;;;;;;;2.55;0.88;;;;;;;21.66;39.96;100640.81;16129293;19;130971;-44
2022/05/22 23:44:39;;;;;;;4.55;1.30;;;;;;;21.66;39.97;100635.25;16131911;19;129643;-45
2022/05/22 23:50:00;;;;;;;2.08;0.80;;;;;;;21.65;40.13;100628.00;16132326;19;130963;-44
2022/05/22 23:55:22;;;;;;;2.80;0.90;;;;;;;21.64;39.90;100612.41;16129171;19;129990;-51
